Tzoanna Vi — SYHY — position and weather

sailwx.info

Track history (hours):
 
Tides and Currents Weather Stations Pressure Air Temp Water Temp Dewpoint Dewpoint Depression Visibility Wind Speed Wind Dir Waves Ship Positions

Tzoanna Vi

Last reported at 2016-Apr-29 17:21 UTC. Time now 2016-May-04 09:49 UTC.
Position N 38°23' E 023°41'.

Length 84 m; draft 3.5 m.

Type: Cargo ship. MMSI: 237991700.

Date/timePositionNaut miles runAvg speedWind from/ knotsBaromVisibWave heightAir tempDewpointWater temp
2016-Apr-29 17:21N 38°23' E 023°41'8 9.2
2016-Apr-29 16:31N 38°22' E 023°50'17 1.0
2016-Apr-28 23:29N 38°10' E 024°05'1010.6
2016-Apr-28 22:33N 38°00' E 024°06'1010.5
2016-Apr-28 21:33N 37°50' E 024°07'1010.2
2016-Apr-28 20:32N 37°40' E 024°05'9 9.6
2016-Apr-28 19:33N 37°38' E 023°53'1010.0
2016-Apr-28 18:33N 37°41' E 023°41'10 9.6
2016-Apr-28 17:33N 37°49' E 023°33'1010.0
2016-Apr-28 16:33N 37°51' E 023°21'1010.3
2016-Apr-28 15:33N 37°53' E 023°08'6 5.8
2016-Apr-28 14:33N 37°55' E 023°02'0 0.0
2016-Apr-28 13:33N 37°55' E 023°02'0 0.0
2016-Apr-28 12:33N 37°55' E 023°02'0 0.0
2016-Apr-28 11:33N 37°55' E 023°02'0 0.0
2016-Apr-28 10:33N 37°55' E 023°02'0 0.0
2016-Apr-28 09:33N 37°55' E 023°02'0 0.0
2016-Apr-28 08:33N 37°55' E 023°02'0 0.0
2016-Apr-28 07:33N 37°55' E 023°02'0 0.0
2016-Apr-28 06:33N 37°55' E 023°02'0 0.0
2016-Apr-28 05:33N 37°55' E 023°02'0 0.0
2016-Apr-28 04:33N 37°55' E 023°02'0 0.0
2016-Apr-28 03:33N 37°55' E 023°02'0 0.0
2016-Apr-28 02:33N 37°55' E 023°02'0 0.0
2016-Apr-28 01:33N 37°55' E 023°02'0 0.0
2016-Apr-28 00:33N 37°55' E 023°02'0 0.0
2016-Apr-27 23:33N 37°55' E 023°02'0 0.0
2016-Apr-27 22:33N 37°55' E 023°02'0 0.0
2016-Apr-27 21:32N 37°55' E 023°02'0 0.0
2016-Apr-27 20:33N 37°55' E 023°02'0 0.0
2016-Apr-27 19:33N 37°55' E 023°02'0 0.0
2016-Apr-27 18:33N 37°55' E 023°02'0 0.0
2016-Apr-27 17:33N 37°55' E 023°02'2 1.6
2016-Apr-27 16:33N 37°54' E 023°03'8 8.1
2016-Apr-27 15:33N 37°50' E 023°11'9 8.6
2016-Apr-27 14:33N 37°42' E 023°17'8 7.9
2016-Apr-27 13:33N 37°40' E 023°26'9 8.9
2016-Apr-27 12:33N 37°39' E 023°38'9 8.6
2016-Apr-27 11:33N 37°39' E 023°49'26 8.3
2016-Apr-27 08:30N 37°46' E 024°19'40 7.6
2016-Apr-27 03:16N 38°26' E 024°24'  
2016-Apr-23 23:33N 38°08' E 024°06'1110.8
2016-Apr-23 22:33N 37°57' E 024°07'1110.5
2016-Apr-23 21:33N 37°47' E 024°07'11 9.2
2016-Apr-23 20:19N 37°38' E 023°58'810.3
2016-Apr-23 19:33N 37°38' E 023°48'9 9.5
2016-Apr-23 18:33N 37°44' E 023°39'9 9.5
2016-Apr-23 17:33N 37°50' E 023°30'1010.4
2016-Apr-23 16:33N 37°52' E 023°17'1010.4
2016-Apr-23 15:33N 37°54' E 023°04'2 2.3
2016-Apr-23 14:33N 37°55' E 023°02'0 0.0
2016-Apr-23 13:33N 37°55' E 023°02'0 0.0
2016-Apr-23 12:33N 37°55' E 023°02'0 0.0
2016-Apr-23 11:33N 37°55' E 023°02'0 0.0
2016-Apr-23 10:33N 37°55' E 023°02'0 0.0
2016-Apr-23 09:33N 37°55' E 023°02'0 0.0
2016-Apr-23 08:33N 37°55' E 023°02'0 0.0
2016-Apr-23 07:33N 37°55' E 023°02'0 0.0
2016-Apr-23 06:33N 37°55' E 023°02'0 0.0
2016-Apr-23 05:33N 37°55' E 023°02'0 0.0
2016-Apr-23 04:32N 37°55' E 023°02'0 0.0
2016-Apr-23 03:33N 37°55' E 023°02'0 0.0
2016-Apr-23 02:33N 37°55' E 023°02'0 0.0
2016-Apr-23 01:33N 37°55' E 023°02'0 0.0
2016-Apr-23 00:33N 37°55' E 023°02'0 0.0
2016-Apr-22 23:33N 37°55' E 023°02'0 0.0
2016-Apr-22 22:32N 37°55' E 023°02'0 0.0
2016-Apr-22 21:32N 37°55' E 023°02'0 0.0
2016-Apr-22 20:33N 37°55' E 023°02'0 0.0
2016-Apr-22 19:33N 37°55' E 023°02'0 0.0
2016-Apr-22 18:33N 37°55' E 023°02'4 4.2
2016-Apr-22 17:33N 37°53' E 023°06'9 8.8
2016-Apr-22 16:33N 37°47' E 023°14'9 8.7
2016-Apr-22 15:33N 37°40' E 023°21'9 9.0
2016-Apr-22 14:32N 37°39' E 023°32'8 8.4
2016-Apr-22 13:33N 37°39' E 023°43'8 8.5
2016-Apr-22 12:33N 37°38' E 023°53'21 8.3
2016-Apr-22 10:04N 37°46' E 024°17'7 8.4
2016-Apr-22 09:15N 37°51' E 024°24'  
Track history (hours):
 
Tides and Currents Weather Stations Pressure Air Temp Water Temp Dewpoint Dewpoint Depression Visibility Wind Speed Wind Dir Waves Ship Positions

Tzoanna Vi

Last reported at 2016-Apr-29 17:21 UTC. Time now 2016-May-04 09:49 UTC.
Position N 38°23' E 023°41'.

Length 84 m; draft 3.5 m.

Type: Cargo ship. MMSI: 237991700.

Date/timePositionNaut miles runAvg speedWind from/ knotsBaromVisibWave heightAir tempDewpointWater temp
2016-Apr-29 17:21N 38°23' E 023°41'8 9.2
2016-Apr-29 16:31N 38°22' E 023°50'17 1.0
2016-Apr-28 23:29N 38°10' E 024°05'1010.6
2016-Apr-28 22:33N 38°00' E 024°06'1010.5
2016-Apr-28 21:33N 37°50' E 024°07'1010.2
2016-Apr-28 20:32N 37°40' E 024°05'9 9.6
2016-Apr-28 19:33N 37°38' E 023°53'1010.0
2016-Apr-28 18:33N 37°41' E 023°41'10 9.6
2016-Apr-28 17:33N 37°49' E 023°33'1010.0
2016-Apr-28 16:33N 37°51' E 023°21'1010.3
2016-Apr-28 15:33N 37°53' E 023°08'6 5.8
2016-Apr-28 14:33N 37°55' E 023°02'0 0.0
2016-Apr-28 13:33N 37°55' E 023°02'0 0.0
2016-Apr-28 12:33N 37°55' E 023°02'0 0.0
2016-Apr-28 11:33N 37°55' E 023°02'0 0.0
2016-Apr-28 10:33N 37°55' E 023°02'0 0.0
2016-Apr-28 09:33N 37°55' E 023°02'0 0.0
2016-Apr-28 08:33N 37°55' E 023°02'0 0.0
2016-Apr-28 07:33N 37°55' E 023°02'0 0.0
2016-Apr-28 06:33N 37°55' E 023°02'0 0.0
2016-Apr-28 05:33N 37°55' E 023°02'0 0.0
2016-Apr-28 04:33N 37°55' E 023°02'0 0.0
2016-Apr-28 03:33N 37°55' E 023°02'0 0.0
2016-Apr-28 02:33N 37°55' E 023°02'0 0.0
2016-Apr-28 01:33N 37°55' E 023°02'0 0.0
2016-Apr-28 00:33N 37°55' E 023°02'0 0.0
2016-Apr-27 23:33N 37°55' E 023°02'0 0.0
2016-Apr-27 22:33N 37°55' E 023°02'0 0.0
2016-Apr-27 21:32N 37°55' E 023°02'0 0.0
2016-Apr-27 20:33N 37°55' E 023°02'0 0.0
2016-Apr-27 19:33N 37°55' E 023°02'0 0.0
2016-Apr-27 18:33N 37°55' E 023°02'0 0.0
2016-Apr-27 17:33N 37°55' E 023°02'2 1.6
2016-Apr-27 16:33N 37°54' E 023°03'8 8.1
2016-Apr-27 15:33N 37°50' E 023°11'9 8.6
2016-Apr-27 14:33N 37°42' E 023°17'8 7.9
2016-Apr-27 13:33N 37°40' E 023°26'9 8.9
2016-Apr-27 12:33N 37°39' E 023°38'9 8.6
2016-Apr-27 11:33N 37°39' E 023°49'26 8.3
2016-Apr-27 08:30N 37°46' E 024°19'40 7.6
2016-Apr-27 03:16N 38°26' E 024°24'  
2016-Apr-23 23:33N 38°08' E 024°06'1110.8
2016-Apr-23 22:33N 37°57' E 024°07'1110.5
2016-Apr-23 21:33N 37°47' E 024°07'11 9.2
2016-Apr-23 20:19N 37°38' E 023°58'810.3
2016-Apr-23 19:33N 37°38' E 023°48'9 9.5
2016-Apr-23 18:33N 37°44' E 023°39'9 9.5
2016-Apr-23 17:33N 37°50' E 023°30'1010.4
2016-Apr-23 16:33N 37°52' E 023°17'1010.4
2016-Apr-23 15:33N 37°54' E 023°04'2 2.3
2016-Apr-23 14:33N 37°55' E 023°02'0 0.0
2016-Apr-23 13:33N 37°55' E 023°02'0 0.0
2016-Apr-23 12:33N 37°55' E 023°02'0 0.0
2016-Apr-23 11:33N 37°55' E 023°02'0 0.0
2016-Apr-23 10:33N 37°55' E 023°02'0 0.0
2016-Apr-23 09:33N 37°55' E 023°02'0 0.0
2016-Apr-23 08:33N 37°55' E 023°02'0 0.0
2016-Apr-23 07:33N 37°55' E 023°02'0 0.0
2016-Apr-23 06:33N 37°55' E 023°02'0 0.0
2016-Apr-23 05:33N 37°55' E 023°02'0 0.0
2016-Apr-23 04:32N 37°55' E 023°02'0 0.0
2016-Apr-23 03:33N 37°55' E 023°02'0 0.0
2016-Apr-23 02:33N 37°55' E 023°02'0 0.0
2016-Apr-23 01:33N 37°55' E 023°02'0 0.0
2016-Apr-23 00:33N 37°55' E 023°02'0 0.0
2016-Apr-22 23:33N 37°55' E 023°02'0 0.0
2016-Apr-22 22:32N 37°55' E 023°02'0 0.0
2016-Apr-22 21:32N 37°55' E 023°02'0 0.0
2016-Apr-22 20:33N 37°55' E 023°02'0 0.0
2016-Apr-22 19:33N 37°55' E 023°02'0 0.0
2016-Apr-22 18:33N 37°55' E 023°02'4 4.2
2016-Apr-22 17:33N 37°53' E 023°06'9 8.8
2016-Apr-22 16:33N 37°47' E 023°14'9 8.7
2016-Apr-22 15:33N 37°40' E 023°21'9 9.0
2016-Apr-22 14:32N 37°39' E 023°32'8 8.4
2016-Apr-22 13:33N 37°39' E 023°43'8 8.5
2016-Apr-22 12:33N 37°38' E 023°53'21 8.3
2016-Apr-22 10:04N 37°46' E 024°17'7 8.4
2016-Apr-22 09:15N 37°51' E 024°24'  

Dump ship's entire track history